ADDS METAR Data INFO
IDs: Format: Raw Decoded Include TAF

Data at: 1058 UTC 18 Aug 2017

KCZT 181055Z AUTO 13004KT 10SM CLR 26/23 A2996 RMK AO2
KCZT 181035Z AUTO 13006KT 10SM CLR 26/22 A2995 RMK AO2
KCZT 181015Z AUTO 13008KT 10SM CLR 26/22 A2995 RMK AO2
KCZT 180955Z AUTO 14008KT 10SM CLR 26/22 A2995 RMK AO2
KCZT 180935Z AUTO 14009KT 10SM CLR 26/22 A2995 RMK AO2
KCZT 180915Z AUTO 14007KT 10SM CLR 26/22 A2996 RMK AO2
KCZT 180855Z AUTO 14009G14KT 10SM CLR 27/22 A2996 RMK AO2
KCZT 180835Z AUTO 14008KT 10SM CLR 27/22 A2996 RMK AO2
KCZT 180815Z AUTO 14009G14KT 10SM CLR 27/22 A2996 RMK AO2
KCZT 180755Z AUTO 14008KT 10SM CLR 27/22 A2997 RMK AO2
KCZT 180735Z AUTO 14007G14KT 10SM CLR 28/22 A2998 RMK AO2
KCZT 180715Z AUTO 14009G15KT 10SM CLR 28/22 A2999 RMK AO2
KCZT 180655Z AUTO 14006KT 10SM CLR 28/22 A2998 RMK AO2
KCZT 180635Z AUTO 14008G19KT 10SM CLR 28/22 A2999 RMK AO2
KCZT 180615Z AUTO 15010G15KT 10SM CLR 28/22 A2999 RMK AO2
KCZT 180555Z AUTO 14008G15KT 10SM CLR 29/22 A2999 RMK AO2
KCZT 180535Z AUTO 13007G14KT 10SM CLR 30/22 A2999 RMK AO2
KCZT 180515Z AUTO 13011G15KT 10SM CLR 30/22 A2998 RMK AO2
KCZT 180455Z AUTO 12008G18KT 10SM CLR 30/22 A2997 RMK AO2
KCZT 180435Z AUTO 13010G16KT 10SM CLR 30/22 A2997 RMK AO2
KCZT 180415Z AUTO 12008G17KT 10SM CLR 31/22 A2996 RMK AO2
KCZT 180355Z AUTO 13011G19KT 10SM CLR 31/22 A2996 RMK AO2
KCZT 180335Z AUTO 13011G15KT 10SM CLR 32/22 A2994 RMK AO2
KCZT 180315Z AUTO 13012G16KT 10SM CLR 32/22 A2993 RMK AO2
KCZT 180255Z AUTO 12009G15KT 10SM CLR 33/20 A2992 RMK AO2
KCZT 180235Z AUTO 14005KT 10SM CLR 35/16 A2991 RMK AO2
KCZT 180215Z AUTO 14006KT 10SM CLR 35/16 A2990 RMK AO2
KCZT 180155Z AUTO 14005KT 10SM CLR 35/16 A2990 RMK AO2
KCZT 180135Z AUTO 15007KT 10SM CLR 36/16 A2990 RMK AO2
KCZT 180115Z AUTO 14011G14KT 10SM CLR 36/16 A2988 RMK AO2
KCZT 180055Z AUTO 13010G15KT 10SM CLR 37/16 A2987 RMK AO2
KCZT 180035Z AUTO 15012G17KT 10SM CLR 37/16 A2986 RMK AO2
KCZT 180015Z AUTO 12008G19KT 10SM SCT090 38/16 A2985 RMK AO2
KCZT 172355Z AUTO 15008G17KT 10SM SCT090 38/16 A2984 RMK AO2
KCZT 172335Z AUTO 15011G18KT 10SM SCT090 39/15 A2984 RMK AO2
KCZT 172315Z AUTO 12009G14KT 100V160 10SM SCT090 39/16 A2984 RMK AO2
KCZT 172255Z AUTO 17006G16KT 10SM SCT090 40/16 A2984 RMK AO2
KCZT 172235Z AUTO 14008G16KT 10SM CLR 40/16 A2984 RMK AO2
KCZT 172215Z AUTO 13006G17KT 10SM CLR 40/15 A2984 RMK AO2
KCZT 172155Z AUTO 14014G17KT 10SM CLR 40/15 A2985 RMK AO2
KCZT 172135Z AUTO 11010G20KT 070V170 10SM CLR 40/15 A2986 RMK AO2
KCZT 172115Z AUTO 15009G14KT 10SM CLR 40/15 A2987 RMK AO2
KCZT 172055Z AUTO 17009G18KT 10SM CLR 40/15 A2988 RMK AO2
KCZT 172035Z AUTO 13009G18KT 100V180 10SM CLR 38/15 A2990 RMK AO2
KCZT 172015Z AUTO 12010G18KT 10SM CLR 38/16 A2992 RMK AO2
KCZT 171955Z AUTO 17011G18KT 10SM CLR 38/16 A2993 RMK AO2
KCZT 171935Z AUTO 12007G15KT 10SM CLR 38/16 A2994 RMK AO2
KCZT 171915Z AUTO 16012G18KT 10SM CLR 38/16 A2995 RMK AO2
KCZT 171855Z AUTO 17014G20KT 10SM CLR 37/16 A2996 RMK AO2
KCZT 171835Z AUTO 16012G17KT 10SM CLR 37/17 A2997 RMK AO2
KCZT 171815Z AUTO 17011G17KT 10SM CLR 37/17 A2997 RMK AO2
KCZT 171755Z AUTO 16012G17KT 10SM CLR 36/18 A2998 RMK AO2
KCZT 171735Z AUTO 15006G16KT 10SM CLR 35/19 A2999 RMK AO2
KCZT 171715Z AUTO 15010G17KT 10SM CLR 35/20 A2999 RMK AO2
KCZT 171655Z AUTO 14008KT 10SM CLR 33/21 A3000 RMK AO2
KCZT 171635Z AUTO 16008KT 120V180 10SM CLR 33/21 A3000 RMK AO2
KCZT 171615Z AUTO 18007KT 10SM CLR 32/21 A3000 RMK AO2
KCZT 171555Z AUTO 16007KT 10SM CLR 32/21 A3000 RMK AO2
KCZT 171535Z AUTO 19008KT 10SM CLR 31/22 A2999 RMK AO2
KCZT 171515Z AUTO 19010KT 10SM SCT026 31/22 A2999 RMK AO2
KCZT 171455Z AUTO 15007G14KT 10SM BKN026 30/22 A2999 RMK AO2
KCZT 171435Z AUTO 20007KT 10SM SCT024 30/22 A3000 RMK AO2
KCZT 171415Z AUTO 15010G15KT 10SM SCT022 29/22 A2999 RMK AO2
KCZT 171355Z AUTO 14006KT 10SM SCT022 28/23 A2999 RMK AO2
KCZT 171335Z AUTO 13005KT 10SM CLR 27/23 A2999 RMK AO2
KCZT 171315Z AUTO 12005KT 10SM CLR 27/22 A2998 RMK AO2
KCZT 171255Z AUTO 11004KT 10SM CLR 26/22 A2997 RMK AO2
KCZT 171235Z AUTO 00000KT 10SM CLR 27/22 A2997 RMK AO2
KCZT 171215Z AUTO 13004KT 10SM CLR 26/22 A2996 RMK AO2
KCZT 171155Z AUTO 13004KT 10SM CLR 27/22 A2995 RMK AO2
KCZT 171135Z AUTO 14005KT 10SM CLR 27/22 A2995 RMK AO2
KCZT 171115Z AUTO 14004KT 10SM CLR 27/22 A2994 RMK AO2
KCZT 171055Z AUTO 15006KT 10SM CLR 27/22 A2994 RMK AO2
KCZT 171035Z AUTO 15006KT 10SM CLR 27/22 A2993 RMK AO2
KCZT 171015Z AUTO 14005KT 10SM CLR 27/21 A2993 RMK AO2
KCZT 170955Z AUTO 15007KT 10SM CLR 28/21 A2992 RMK AO2
KCZT 170935Z AUTO 14007KT 10SM CLR 28/21 A2992 RMK AO2
KCZT 170915Z AUTO 16013G16KT 10SM CLR 28/21 A2992 RMK AO2
KCZT 170855Z AUTO 16013KT 10SM CLR 28/21 A2992 RMK AO2
KCZT 170835Z AUTO 15011G15KT 10SM CLR 28/21 A2993 RMK AO2
KCZT 170815Z AUTO 16010G17KT 10SM CLR 29/21 A2993 RMK AO2
KCZT 170755Z AUTO 16013G22KT 10SM CLR 29/21 A2993 RMK AO2
KCZT 170735Z AUTO 16014G18KT 10SM CLR 30/21 A2992 RMK AO2
KCZT 170715Z AUTO 15013G22KT 10SM CLR 30/21 A2992 RMK AO2
KCZT 170655Z AUTO 16013G20KT 10SM CLR 30/22 A2992 RMK AO2
KCZT 170635Z AUTO 15014G17KT 10SM CLR 30/22 A2992 RMK AO2
KCZT 170615Z AUTO 16013G18KT 10SM CLR 31/22 A2991 RMK AO2
KCZT 170555Z AUTO 15015G21KT 10SM CLR 31/21 A2991 RMK AO2
KCZT 170535Z AUTO 14012G19KT 10SM CLR 31/21 A2990 RMK AO2
KCZT 170515Z AUTO 15012G19KT 10SM CLR 31/22 A2990 RMK AO2
KCZT 170455Z AUTO 14012G19KT 10SM CLR 31/22 A2989 RMK AO2
KCZT 170435Z AUTO 14013G18KT 10SM CLR 32/23 A2989 RMK AO2
KCZT 170415Z AUTO 14011G17KT 10SM CLR 32/23 A2988 RMK AO2
KCZT 170355Z AUTO 13008G18KT 10SM CLR 32/23 A2988 RMK AO2
KCZT 170335Z AUTO 13011G19KT 10SM CLR 32/23 A2988 RMK AO2
KCZT 170315Z AUTO 14011G20KT 10SM CLR 33/22 A2987 RMK AO2
KCZT 170255Z AUTO 13008G16KT 10SM CLR 33/18 A2986 RMK AO2 LTG DSNT SW
KCZT 170235Z AUTO 14004KT 10SM CLR 34/18 A2985 RMK AO2
KCZT 170215Z AUTO 15004KT 10SM CLR 35/18 A2985 RMK AO2
KCZT 170155Z AUTO 14007KT 10SM CLR 35/18 A2984 RMK AO2
KCZT 170135Z AUTO 13007KT 10SM CLR 35/18 A2984 RMK AO2
KCZT 170115Z AUTO 14008G14KT 10SM CLR 36/18 A2984 RMK AO2
KCZT 170055Z AUTO 15011G14KT 10SM CLR 36/18 A2982 RMK AO2
KCZT 170035Z AUTO 15009G15KT 10SM CLR 37/18 A2982 RMK AO2
KCZT 170015Z AUTO 13008G16KT 10SM SCT090 37/18 A2981 RMK AO2
KCZT 162355Z AUTO 13012G19KT 10SM BKN080 38/18 A2981 RMK AO2 LTG DSNT SW
KCZT 162335Z AUTO 16010G15KT 10SM SCT090 39/17 A2980 RMK AO2 LTG DSNT W
KCZT 162315Z AUTO 16011G16KT 10SM SCT090 39/16 A2980 RMK AO2 LTG DSNT W